Time;durP1;ratioP1;P1;durP2;ratioP2;P2;SDS_P1;SDS_P2;PMS_P1;PMS_P2;Temp;Humidity;BMP_temperature;BMP_pressure;BME280_temperature;BME280_humidity;BME280_pressure;Samples;Min_cycle;Max_cycle;Signal;HPM_P1;HPM_P2
2024/01/09 00:02:11;;;;;;;2.30;2.10;;;19.20;38.10;;;;;;5008649;28;20317;-89
2024/01/09 00:04:37;;;;;;;1.50;1.40;;;19.30;38.20;;;;;;5024835;28;20218;-90
2024/01/09 00:07:03;;;;;;;1.70;1.60;;;19.20;38.20;;;;;;5020189;28;20244;-89
2024/01/09 00:09:28;;;;;;;1.80;1.70;;;19.30;38.20;;;;;;5020969;28;20227;-90
2024/01/09 00:11:54;;;;;;;1.70;1.60;;;19.20;38.10;;;;;;5026952;28;20739;-91
2024/01/09 00:14:19;;;;;;;1.60;1.50;;;19.30;38.20;;;;;;5011088;28;20245;-91
2024/01/09 00:16:45;;;;;;;1.60;1.50;;;19.30;38.10;;;;;;5008407;28;20214;-90
2024/01/09 00:19:10;;;;;;;1.60;1.50;;;19.20;38.00;;;;;;5022388;28;20261;-89
2024/01/09 00:21:38;;;;;;;1.90;1.80;;;19.30;38.10;;;;;;5021633;28;20230;-91
2024/01/09 00:24:03;;;;;;;1.67;1.57;;;19.30;38.10;;;;;;5023432;28;20223;-88
2024/01/09 00:26:29;;;;;;;1.80;1.70;;;19.30;38.10;;;;;;5018676;28;20418;-89
2024/01/09 00:28:54;;;;;;;1.57;1.47;;;19.30;38.10;;;;;;5019645;28;20214;-89
2024/01/09 00:31:20;;;;;;;1.60;1.50;;;19.20;37.90;;;;;;5026720;28;20215;-90
2024/01/09 00:33:46;;;;;;;1.57;1.47;;;19.30;38.10;;;;;;5011659;28;20211;-90
2024/01/09 00:36:12;;;;;;;1.70;1.60;;;19.30;38.00;;;;;;5020088;28;20428;-91
2024/01/09 00:38:37;;;;;;;1.70;1.60;;;19.30;38.00;;;;;;5028226;28;20484;-88
2024/01/09 00:41:03;;;;;;;1.70;1.60;;;19.30;38.00;;;;;;5000978;28;20233;-90
2024/01/09 00:43:28;;;;;;;1.70;1.60;;;19.20;37.90;;;;;;5025469;28;20223;-89
2024/01/09 00:45:54;;;;;;;1.70;1.60;;;19.30;38.10;;;;;;5028752;28;20223;-90
2024/01/09 00:48:19;;;;;;;1.97;1.87;;;19.20;37.90;;;;;;5009979;28;20689;-90
2024/01/09 00:50:45;;;;;;;1.80;1.70;;;19.30;38.00;;;;;;5011502;28;20214;-89
2024/01/09 00:53:11;;;;;;;1.60;1.50;;;19.20;37.90;;;;;;5028239;28;20218;-89
2024/01/09 00:55:36;;;;;;;1.60;1.50;;;19.30;38.00;;;;;;5025132;28;20920;-88
2024/01/09 00:58:02;;;;;;;1.50;1.40;;;19.20;37.90;;;;;;5026315;28;20219;-88
2024/01/09 01:00:27;;;;;;;1.70;1.60;;;19.30;38.00;;;;;;5028481;28;20570;-89
2024/01/09 01:02:53;;;;;;;1.80;1.67;;;19.30;38.00;;;;;;5026897;28;20266;-89
2024/01/09 01:05:18;;;;;;;1.93;1.53;;;19.20;37.90;;;;;;5023310;28;20306;-89
2024/01/09 01:07:44;;;;;;;1.47;1.37;;;19.20;37.80;;;;;;5022333;28;20298;-90
2024/01/09 01:10:12;;;;;;;1.50;1.40;;;19.20;37.90;;;;;;5006391;28;20218;-89
2024/01/09 01:12:38;;;;;;;1.77;1.67;;;19.20;37.90;;;;;;5024203;28;20222;-89
2024/01/09 01:15:04;;;;;;;1.40;1.30;;;19.20;37.80;;;;;;5015459;28;21216;-87
2024/01/09 01:17:30;;;;;;;1.90;1.80;;;19.20;37.90;;;;;;5025665;28;20222;-89
2024/01/09 01:19:55;;;;;;;1.67;1.57;;;19.20;37.80;;;;;;5009389;28;20411;-89
2024/01/09 01:22:21;;;;;;;1.60;1.50;;;19.20;37.80;;;;;;5006758;28;20596;-88
2024/01/09 01:24:46;;;;;;;1.73;1.63;;;19.20;37.80;;;;;;5026267;28;20681;-89
2024/01/09 01:27:12;;;;;;;1.60;1.50;;;19.20;37.80;;;;;;5026361;28;20288;-88
2024/01/09 01:29:37;;;;;;;1.77;1.67;;;19.20;37.80;;;;;;5021732;28;20214;-90
2024/01/09 01:32:09;;;;;;;1.50;1.40;;;19.20;37.80;;;;;;5027751;28;20219;-88
2024/01/09 01:34:35;;;;;;;2.20;2.00;;;19.20;37.80;;;;;;5026949;28;20213;-89
2024/01/09 01:37:00;;;;;;;1.50;1.40;;;19.20;37.80;;;;;;5028729;28;20406;-89
2024/01/09 01:39:26;;;;;;;2.07;1.97;;;19.20;37.80;;;;;;5027099;28;20315;-88
2024/01/09 01:41:52;;;;;;;1.53;1.43;;;19.20;37.80;;;;;;5031577;28;20246;-89
2024/01/09 01:44:18;;;;;;;1.90;1.80;;;19.20;37.80;;;;;;5039412;28;20226;-90
2024/01/09 01:46:45;;;;;;;2.83;1.70;;;19.20;37.80;;;;;;5026180;28;20293;-91
2024/01/09 01:49:12;;;;;;;1.60;1.50;;;19.20;37.80;;;;;;5028878;28;20430;-90
2024/01/09 01:51:38;;;;;;;1.57;1.47;;;19.20;37.70;;;;;;5013717;28;20896;-90
2024/01/09 01:54:04;;;;;;;1.80;1.70;;;19.20;37.70;;;;;;5027026;28;20430;-91
2024/01/09 01:56:31;;;;;;;1.67;1.57;;;19.20;37.70;;;;;;5013029;28;20746;-90
2024/01/09 01:58:56;;;;;;;1.37;1.27;;;19.20;37.70;;;;;;5010866;28;20223;-89
2024/01/09 02:01:22;;;;;;;1.80;1.70;;;19.20;37.70;;;;;;5030518;28;21081;-89
2024/01/09 02:03:48;;;;;;;2.03;1.93;;;19.20;37.70;;;;;;5011561;28;20685;-89
2024/01/09 02:06:14;;;;;;;1.60;1.50;;;19.20;37.70;;;;;;5029762;28;20491;-89
2024/01/09 02:08:41;;;;;;;1.60;1.50;;;19.20;37.70;;;;;;5023829;28;20738;-89
2024/01/09 02:11:07;;;;;;;1.50;1.40;;;19.20;37.70;;;;;;5015435;28;20229;-88
2024/01/09 02:13:32;;;;;;;1.80;1.70;;;19.20;38.40;;;;;;5024640;28;20430;-89
2024/01/09 02:15:58;;;;;;;3.40;1.70;;;19.20;37.60;;;;;;5026102;28;20219;-88
2024/01/09 02:18:24;;;;;;;1.67;1.57;;;19.20;38.40;;;;;;5030448;28;20640;-88
2024/01/09 02:20:49;;;;;;;1.80;1.70;;;19.20;37.60;;;;;;5024193;28;20241;-89
2024/01/09 02:23:15;;;;;;;1.60;1.50;;;19.20;37.60;;;;;;5027087;28;20305;-88
2024/01/09 02:25:40;;;;;;;1.60;1.50;;;19.20;37.60;;;;;;5007771;28;20226;-91
2024/01/09 02:28:29;;;;;;;1.60;1.50;;;19.20;37.60;;;;;;5026755;28;20281;-89
2024/01/09 02:30:56;;;;;;;1.47;1.37;;;19.20;37.60;;;;;;5010150;28;20215;-88
2024/01/09 02:33:22;;;;;;;1.60;1.50;;;19.20;37.60;;;;;;5024848;28;20505;-89
2024/01/09 02:35:47;;;;;;;1.57;1.47;;;19.20;37.60;;;;;;5024917;28;20505;-89
2024/01/09 02:38:13;;;;;;;1.57;1.47;;;19.20;37.60;;;;;;4982259;28;20227;-87
2024/01/09 02:40:38;;;;;;;1.43;1.33;;;19.20;37.50;;;;;;5005431;28;20238;-92
2024/01/09 02:43:05;;;;;;;1.57;1.47;;;19.20;37.50;;;;;;5026496;28;20272;-89
2024/01/09 02:45:30;;;;;;;1.43;1.33;;;19.20;37.60;;;;;;5025334;28;20558;-87
2024/01/09 02:47:56;;;;;;;1.53;1.43;;;19.20;37.50;;;;;;5024874;28;20450;-87
2024/01/09 02:50:21;;;;;;;3.20;1.90;;;19.20;37.50;;;;;;5025093;28;20227;-88
2024/01/09 02:52:47;;;;;;;1.50;1.40;;;19.20;37.50;;;;;;5022323;28;20207;-86
2024/01/09 02:55:13;;;;;;;1.53;1.43;;;19.20;37.50;;;;;;5021599;28;20884;-87
2024/01/09 02:57:41;;;;;;;1.70;1.60;;;19.20;37.50;;;;;;5025836;28;20222;-87
2024/01/09 03:00:10;;;;;;;1.50;1.40;;;19.20;37.50;;;;;;5019995;28;20686;-87
2024/01/09 03:02:36;;;;;;;1.53;1.43;;;19.20;37.50;;;;;;5005786;28;20449;-91
2024/01/09 03:05:03;;;;;;;1.47;1.30;;;19.20;37.50;;;;;;5025925;28;20430;-87
2024/01/09 03:07:29;;;;;;;1.40;1.30;;;19.20;37.50;;;;;;5032258;28;20429;-89
2024/01/09 03:09:54;;;;;;;1.43;1.33;;;19.20;37.50;;;;;;5023035;28;20416;-91
2024/01/09 03:12:20;;;;;;;1.80;1.70;;;19.20;37.40;;;;;;5027530;28;20305;-88
2024/01/09 03:14:46;;;;;;;1.70;1.60;;;19.20;37.40;;;;;;5009236;28;20242;-89
2024/01/09 03:17:11;;;;;;;1.53;1.43;;;19.20;37.40;;;;;;5009134;28;20222;-89
2024/01/09 03:19:37;;;;;;;1.47;1.37;;;19.20;37.40;;;;;;5021844;28;20222;-92
2024/01/09 03:22:03;;;;;;;1.70;1.60;;;19.20;37.40;;;;;;5025372;28;20622;-89
2024/01/09 03:24:29;;;;;;;1.47;1.37;;;19.20;37.40;;;;;;5024689;28;20219;-93
2024/01/09 03:26:54;;;;;;;1.90;1.53;;;19.20;37.40;;;;;;5008687;28;20764;-94
2024/01/09 03:29:20;;;;;;;1.77;1.63;;;19.20;37.40;;;;;;5035488;28;20689;-89
2024/01/09 03:31:45;;;;;;;2.03;1.40;;;19.20;37.30;;;;;;5018577;28;20290;-89
2024/01/09 03:34:11;;;;;;;1.73;1.63;;;19.20;37.40;;;;;;5025167;28;20568;-92
2024/01/09 03:36:38;;;;;;;1.40;1.30;;;19.20;37.40;;;;;;5026481;28;20361;-93
2024/01/09 03:39:04;;;;;;;1.40;1.30;;;19.20;37.30;;;;;;5022605;28;20759;-89
2024/01/09 03:41:31;;;;;;;1.70;1.60;;;19.20;37.30;;;;;;5025309;28;20578;-92
2024/01/09 03:43:57;;;;;;;1.87;1.63;;;19.20;37.30;;;;;;5016262;28;20427;-94
2024/01/09 03:46:23;;;;;;;1.90;1.80;;;19.20;37.30;;;;;;5018748;28;20448;-93
2024/01/09 03:48:48;;;;;;;1.80;1.70;;;19.20;37.30;;;;;;5005969;28;20673;-89
2024/01/09 03:51:14;;;;;;;1.57;1.47;;;19.20;37.30;;;;;;5020248;28;20581;-89
2024/01/09 03:53:40;;;;;;;1.43;1.33;;;19.20;37.30;;;;;;4997411;28;20866;-92
2024/01/09 03:56:05;;;;;;;1.60;1.50;;;19.20;37.20;;;;;;4999982;28;20227;-90
2024/01/09 03:58:31;;;;;;;1.73;1.63;;;19.20;37.30;;;;;;5020487;28;20231;-89
2024/01/09 04:00:56;;;;;;;1.90;1.80;;;19.20;37.20;;;;;;5021268;28;20223;-88
2024/01/09 04:03:22;;;;;;;1.40;1.30;;;19.20;37.20;;;;;;5021033;28;20234;-88
2024/01/09 04:05:48;;;;;;;1.43;1.33;;;19.20;37.20;;;;;;5019956;28;20203;-92
2024/01/09 04:08:14;;;;;;;1.67;1.57;;;19.20;37.20;;;;;;5021714;28;20431;-88
2024/01/09 04:10:40;;;;;;;1.50;1.40;;;19.20;37.20;;;;;;5021650;28;20296;-88
2024/01/09 04:13:06;;;;;;;1.40;1.30;;;19.20;37.20;;;;;;4999431;28;20458;-89
2024/01/09 04:15:32;;;;;;;1.60;1.50;;;19.20;37.20;;;;;;5020413;28;20418;-89
2024/01/09 04:17:57;;;;;;;1.40;1.30;;;19.20;37.20;;;;;;5004533;28;20725;-86
2024/01/09 04:20:23;;;;;;;1.67;1.40;;;19.20;37.20;;;;;;5025082;28;20418;-86
2024/01/09 04:22:49;;;;;;;1.73;1.63;;;19.20;37.20;;;;;;5001401;28;20228;-90
2024/01/09 04:25:14;;;;;;;1.40;1.30;;;19.20;37.20;;;;;;5013328;28;20669;-87
2024/01/09 04:27:40;;;;;;;1.73;1.30;;;19.20;37.20;;;;;;5022392;28;20238;-88
2024/01/09 04:30:06;;;;;;;1.60;1.50;;;19.20;37.20;;;;;;5017714;28;20219;-87
2024/01/09 04:32:32;;;;;;;1.77;1.67;;;19.20;37.10;;;;;;5020790;28;20218;-85
2024/01/09 04:34:57;;;;;;;1.87;1.77;;;19.20;37.10;;;;;;5001336;28;20467;-87
2024/01/09 04:37:23;;;;;;;1.50;1.40;;;19.20;37.10;;;;;;5024298;28;20219;-87
2024/01/09 04:39:49;;;;;;;1.40;1.30;;;19.20;37.10;;;;;;5007113;28;20976;-91
2024/01/09 04:42:15;;;;;;;1.50;1.40;;;19.20;37.10;;;;;;5019321;28;20483;-92
2024/01/09 04:44:40;;;;;;;1.50;1.40;;;19.20;37.10;;;;;;5003254;28;20219;-89
2024/01/09 04:47:06;;;;;;;1.60;1.50;;;19.20;37.10;;;;;;5020057;28;20235;-87
2024/01/09 04:49:31;;;;;;;1.70;1.60;;;19.20;37.00;;;;;;5022014;28;20207;-88
2024/01/09 04:51:57;;;;;;;3.40;1.60;;;19.20;37.10;;;;;;5004158;28;20224;-87
2024/01/09 04:54:22;;;;;;;1.50;1.40;;;19.30;37.10;;;;;;4996265;28;20302;-91
2024/01/09 04:56:48;;;;;;;1.70;1.47;;;19.30;37.10;;;;;;4987030;28;20642;-88
2024/01/09 04:59:14;;;;;;;2.10;1.60;;;19.30;37.10;;;;;;4994793;28;20229;-87
2024/01/09 05:01:39;;;;;;;3.20;1.30;;;19.30;37.10;;;;;;5014559;28;20226;-90
2024/01/09 05:04:05;;;;;;;1.67;1.57;;;19.30;37.10;;;;;;5015381;28;20214;-92
2024/01/09 05:06:30;;;;;;;1.63;1.53;;;19.30;37.10;;;;;;5021231;28;20673;-88
2024/01/09 05:08:56;;;;;;;1.70;1.60;;;19.30;37.10;;;;;;4998446;28;20962;-94
2024/01/09 05:11:21;;;;;;;1.50;1.40;;;19.30;37.00;;;;;;5012083;28;20452;-86
2024/01/09 05:13:47;;;;;;;2.00;1.30;;;19.30;37.00;;;;;;5011436;28;20269;-87
2024/01/09 05:16:13;;;;;;;1.50;1.40;;;19.30;37.00;;;;;;5012366;28;20684;-85
2024/01/09 05:18:40;;;;;;;1.47;1.37;;;19.30;37.00;;;;;;5010973;28;20217;-91
2024/01/09 05:21:05;;;;;;;1.47;1.37;;;19.30;36.90;;;;;;5016172;28;21005;-86
2024/01/09 05:23:31;;;;;;;1.47;1.37;;;19.30;36.90;;;;;;5019096;28;20438;-87
2024/01/09 05:25:56;;;;;;;1.50;1.40;;;19.40;37.00;;;;;;5000205;28;20229;-87
2024/01/09 05:28:22;;;;;;;1.50;1.40;;;19.40;36.80;;;;;;4997995;28;20634;-87
2024/01/09 05:30:47;;;;;;;1.57;1.47;;;19.40;37.60;;;;;;5014788;28;20662;-88
2024/01/09 05:33:13;;;;;;;1.33;1.23;;;19.40;36.80;;;;;;4997094;28;20214;-89
2024/01/09 05:35:39;;;;;;;1.50;1.40;;;19.40;36.80;;;;;;5018141;28;20218;-91
2024/01/09 05:38:04;;;;;;;1.40;1.30;;;19.40;36.80;;;;;;5021091;28;20218;-86
2024/01/09 05:40:30;;;;;;;1.47;1.37;;;19.40;36.80;;;;;;5020991;28;20222;-85
2024/01/09 05:42:55;;;;;;;2.07;1.50;;;19.40;36.80;;;;;;5019815;28;20250;-87
2024/01/09 05:45:21;;;;;;;1.60;1.50;;;19.40;36.80;;;;;;4996685;28;20257;-85
2024/01/09 05:47:46;;;;;;;2.07;1.50;;;19.40;36.80;;;;;;5002276;28;20207;-85
2024/01/09 05:50:12;;;;;;;1.83;1.73;;;19.40;36.80;;;;;;5022998;28;20273;-86
2024/01/09 05:52:38;;;;;;;1.70;1.60;;;19.40;36.80;;;;;;5000649;28;20291;-86
2024/01/09 05:55:05;;;;;;;1.60;1.40;;;19.40;36.80;;;;;;5006186;28;20215;-87
2024/01/09 05:57:30;;;;;;;1.50;1.40;;;19.40;36.80;;;;;;5020590;28;20214;-86
2024/01/09 05:59:57;;;;;;;1.20;1.10;;;19.40;36.80;;;;;;5019739;28;21188;-85
2024/01/09 06:02:23;;;;;;;1.93;1.80;;;19.40;36.80;;;;;;5016292;28;20299;-86
2024/01/09 06:04:48;;;;;;;1.97;1.87;;;19.40;36.80;;;;;;5013861;28;20529;-83
2024/01/09 06:07:15;;;;;;;1.60;1.50;;;19.40;37.60;;;;;;5013754;28;20221;-84
2024/01/09 06:09:41;;;;;;;1.60;1.50;;;19.40;36.80;;;;;;5024311;28;20215;-84
2024/01/09 06:12:07;;;;;;;1.60;1.50;;;19.40;36.80;;;;;;5016276;28;20568;-84
2024/01/09 06:14:32;;;;;;;1.67;1.53;;;19.40;36.80;;;;;;5001910;28;20233;-85
2024/01/09 06:16:58;;;;;;;1.80;1.70;;;19.40;36.80;;;;;;5021033;28;20559;-85
2024/01/09 06:19:23;;;;;;;4.03;1.60;;;19.40;36.70;;;;;;5001635;28;20226;-84
2024/01/09 06:21:49;;;;;;;1.63;1.53;;;19.40;36.70;;;;;;5021722;28;20206;-83
2024/01/09 06:24:15;;;;;;;1.73;1.40;;;19.40;36.70;;;;;;5020040;28;20226;-88
2024/01/09 06:26:40;;;;;;;1.60;1.50;;;19.40;36.70;;;;;;5014825;28;20305;-85
2024/01/09 06:29:06;;;;;;;1.50;1.40;;;19.40;36.70;;;;;;5020134;28;20234;-84
2024/01/09 06:31:32;;;;;;;1.60;1.50;;;19.40;36.70;;;;;;5026221;28;20237;-85
2024/01/09 06:33:57;;;;;;;1.50;1.40;;;19.40;36.80;;;;;;5018171;28;20284;-86
2024/01/09 06:36:23;;;;;;;1.63;1.53;;;19.40;36.70;;;;;;5024406;28;20406;-84
2024/01/09 06:38:48;;;;;;;1.90;1.70;;;19.40;36.80;;;;;;5028976;28;20218;-84
2024/01/09 06:41:14;;;;;;;1.97;1.70;;;19.40;36.80;;;;;;5005025;28;20234;-84
2024/01/09 06:43:39;;;;;;;1.67;1.57;;;19.40;36.80;;;;;;5002405;28;20227;-84
2024/01/09 06:46:06;;;;;;;1.60;1.50;;;19.40;36.80;;;;;;5014729;28;20242;-84
2024/01/09 06:48:32;;;;;;;2.93;1.73;;;19.40;36.80;;;;;;4995502;28;20222;-85
2024/01/09 06:50:58;;;;;;;1.63;1.53;;;19.40;36.80;;;;;;5018020;28;20470;-84
2024/01/09 06:53:24;;;;;;;2.40;2.20;;;19.40;36.90;;;;;;5019229;28;20747;-90
2024/01/09 06:55:49;;;;;;;2.33;1.47;;;19.40;36.90;;;;;;5021991;28;20306;-85
2024/01/09 06:58:16;;;;;;;1.73;1.63;;;19.40;36.90;;;;;;5019562;28;20525;-88
2024/01/09 07:00:43;;;;;;;2.63;1.87;;;19.40;36.80;;;;;;5022510;28;20321;-85
2024/01/09 07:03:08;;;;;;;1.70;1.60;;;19.40;36.90;;;;;;5015286;28;20452;-85
2024/01/09 07:05:34;;;;;;;1.63;1.50;;;19.40;36.90;;;;;;5019685;28;21074;-88
2024/01/09 07:07:59;;;;;;;1.90;1.80;;;19.40;37.70;;;;;;5014306;28;20227;-90
2024/01/09 07:10:25;;;;;;;1.80;1.70;;;19.40;37.00;;;;;;5002153;28;20223;-88
2024/01/09 07:12:50;;;;;;;3.60;2.60;;;19.40;37.00;;;;;;5015833;28;20281;-89
2024/01/09 07:15:16;;;;;;;1.90;1.67;;;19.40;37.00;;;;;;5017224;28;20856;-86
2024/01/09 07:17:42;;;;;;;1.80;1.70;;;19.40;37.00;;;;;;5019003;28;20218;-87
2024/01/09 07:20:08;;;;;;;1.73;1.63;;;19.40;37.00;;;;;;5001347;28;20293;-85
2024/01/09 07:22:33;;;;;;;1.70;1.60;;;19.40;37.00;;;;;;5003653;28;20440;-85
2024/01/09 07:24:59;;;;;;;1.60;1.47;;;19.40;37.00;;;;;;5020148;28;20223;-85
2024/01/09 07:27:24;;;;;;;2.13;1.93;;;19.40;37.00;;;;;;5025073;28;20239;-86
2024/01/09 07:29:50;;;;;;;2.40;2.20;;;19.40;37.00;;;;;;5025547;28;20632;-86
2024/01/09 07:32:16;;;;;;;3.20;1.83;;;19.40;37.00;;;;;;5028153;28;20215;-85
2024/01/09 07:34:43;;;;;;;2.23;1.70;;;19.40;37.00;;;;;;5019172;28;21245;-88
2024/01/09 07:37:08;;;;;;;2.20;1.63;;;19.40;37.00;;;;;;5026180;28;20235;-85
2024/01/09 07:39:33;;;;;;;4.20;2.03;;;19.40;37.00;;;;;;5002479;28;20463;-86
2024/01/09 07:41:59;;;;;;;1.60;1.50;;;19.40;37.10;;;;;;5016283;28;20269;-86
2024/01/09 07:44:25;;;;;;;1.50;1.40;;;19.40;37.00;;;;;;5011722;28;20634;-85
2024/01/09 07:46:50;;;;;;;1.50;1.30;;;19.40;37.00;;;;;;5006872;28;20314;-89
2024/01/09 07:49:16;;;;;;;2.90;1.50;;;19.40;37.00;;;;;;5004433;28;20254;-86
2024/01/09 07:51:41;;;;;;;1.50;1.40;;;19.40;37.00;;;;;;5014923;28;20285;-85
2024/01/09 07:54:07;;;;;;;1.50;1.40;;;19.40;37.00;;;;;;4997590;28;20249;-88
2024/01/09 07:56:32;;;;;;;1.70;1.60;;;19.40;37.00;;;;;;5020223;28;20303;-86
2024/01/09 07:58:58;;;;;;;1.70;1.60;;;19.40;37.70;;;;;;5020254;28;20308;-87
2024/01/09 08:01:24;;;;;;;1.70;1.60;;;19.40;37.00;;;;;;4994621;28;20258;-87
2024/01/09 08:03:50;;;;;;;1.30;1.20;;;19.40;37.00;;;;;;5014831;28;20227;-86
2024/01/09 08:06:16;;;;;;;1.70;1.60;;;19.40;37.00;;;;;;5019623;28;21053;-86
2024/01/09 08:08:43;;;;;;;1.90;1.80;;;19.40;37.00;;;;;;5023281;28;20215;-87
2024/01/09 08:11:09;;;;;;;1.50;1.40;;;19.40;37.00;;;;;;5021730;28;20456;-85
2024/01/09 08:13:36;;;;;;;1.70;1.60;;;19.40;37.00;;;;;;5001528;28;20443;-86
2024/01/09 08:16:01;;;;;;;1.73;1.50;;;19.40;37.00;;;;;;5020976;28;20415;-86
2024/01/09 08:18:27;;;;;;;1.60;1.50;;;19.40;37.00;;;;;;4998654;28;20909;-86
2024/01/09 08:20:53;;;;;;;1.50;1.40;;;19.40;37.00;;;;;;5021227;28;20264;-86
2024/01/09 08:23:19;;;;;;;1.33;1.23;;;19.40;37.00;;;;;;5020138;28;20235;-86
2024/01/09 08:25:45;;;;;;;1.60;1.50;;;19.40;37.00;;;;;;5022734;28;20526;-86
2024/01/09 08:28:11;;;;;;;7.03;1.70;;;19.40;37.00;;;;;;5020328;28;20258;-87
2024/01/09 08:30:36;;;;;;;1.20;1.10;;;19.40;36.90;;;;;;5021662;28;20301;-85
2024/01/09 08:33:02;;;;;;;1.80;1.70;;;19.40;37.00;;;;;;5022713;28;20237;-85
2024/01/09 08:35:28;;;;;;;1.87;1.67;;;19.40;36.90;;;;;;5023181;28;20819;-85
2024/01/09 08:37:53;;;;;;;2.27;1.70;;;19.40;37.00;;;;;;5025526;28;20214;-85
2024/01/09 08:40:19;;;;;;;1.53;1.43;;;19.40;36.90;;;;;;5025952;28;20218;-86
2024/01/09 08:42:44;;;;;;;1.87;1.70;;;19.40;37.00;;;;;;5024428;28;20690;-85
2024/01/09 08:45:11;;;;;;;1.70;1.60;;;19.40;36.90;;;;;;5005569;28;20231;-87
2024/01/09 08:47:37;;;;;;;1.40;1.30;;;19.40;37.70;;;;;;5028847;28;20254;-86
2024/01/09 08:50:04;;;;;;;2.07;1.87;;;19.40;37.60;;;;;;5018852;28;20466;-85
2024/01/09 08:52:30;;;;;;;1.70;1.53;;;19.40;36.90;;;;;;5018118;28;20457;-86
2024/01/09 08:54:55;;;;;;;1.63;1.53;;;19.40;36.80;;;;;;5020319;28;20772;-85
2024/01/09 08:57:21;;;;;;;1.63;1.53;;;19.40;36.80;;;;;;5023647;28;20581;-86
2024/01/09 08:59:48;;;;;;;1.53;1.43;;;19.40;36.80;;;;;;5020330;28;21027;-86
2024/01/09 09:02:13;;;;;;;1.40;1.30;;;19.40;36.80;;;;;;5020884;28;20227;-85
2024/01/09 09:04:39;;;;;;;1.60;1.50;;;19.40;36.80;;;;;;5019260;28;20427;-86
2024/01/09 09:07:05;;;;;;;1.70;1.60;;;19.40;36.80;;;;;;4991607;28;20215;-86
2024/01/09 09:09:31;;;;;;;1.60;1.50;;;19.40;36.80;;;;;;5014718;28;20304;-86
2024/01/09 09:12:01;;;;;;;1.63;1.53;;;19.40;36.80;;;;;;5027539;28;20807;-86
2024/01/09 09:14:27;;;;;;;1.60;1.50;;;19.40;36.80;;;;;;5007515;28;20422;-86
2024/01/09 09:16:53;;;;;;;1.53;1.43;;;19.40;36.80;;;;;;5023801;28;20436;-87
2024/01/09 09:19:21;;;;;;;4.73;1.50;;;19.40;36.80;;;;;;5022222;28;20459;-87
2024/01/09 09:21:46;;;;;;;1.50;1.40;;;19.40;36.80;;;;;;5021947;28;20217;-86
2024/01/09 09:24:12;;;;;;;1.60;1.50;;;19.40;36.80;;;;;;5005086;28;20470;-87
2024/01/09 09:26:37;;;;;;;1.40;1.30;;;19.40;36.80;;;;;;5019898;28;20216;-87
2024/01/09 09:29:03;;;;;;;1.50;1.40;;;19.40;36.70;;;;;;5020458;28;20227;-84
2024/01/09 09:31:29;;;;;;;1.60;1.50;;;19.40;36.80;;;;;;5023770;28;20272;-87
2024/01/09 09:33:58;;;;;;;1.40;1.30;;;19.40;36.80;;;;;;5018889;28;20681;-87
2024/01/09 09:36:24;;;;;;;1.80;1.70;;;19.40;36.80;;;;;;5017620;28;20222;-86
2024/01/09 09:38:53;;;;;;;1.30;1.20;;;19.40;36.80;;;;;;5019006;28;20448;-86
2024/01/09 09:41:20;;;;;;;2.47;1.50;;;19.40;36.80;;;;;;5024688;28;20502;-87
2024/01/09 09:43:50;;;;;;;1.43;1.33;;;19.40;36.80;;;;;;5008505;28;20894;-86
2024/01/09 09:46:24;;;;;;;1.87;1.77;;;19.40;36.70;;;;;;5022043;28;20540;-86
2024/01/09 09:48:52;;;;;;;1.40;1.30;;;19.40;36.70;;;;;;5025791;28;20425;-86
2024/01/09 09:51:18;;;;;;;2.80;1.70;;;19.40;36.70;;;;;;5006487;28;20433;-87
2024/01/09 09:53:44;;;;;;;1.60;1.50;;;19.40;36.70;;;;;;5026129;28;20427;-86
2024/01/09 09:56:13;;;;;;;1.80;1.70;;;19.40;36.70;;;;;;5027626;28;20410;-87
2024/01/09 09:58:39;;;;;;;1.43;1.33;;;19.40;36.70;;;;;;5023241;28;20235;-85
2024/01/09 10:01:08;;;;;;;1.50;1.40;;;19.40;36.70;;;;;;5027392;28;20515;-86
2024/01/09 10:03:35;;;;;;;1.33;1.23;;;19.40;36.70;;;;;;5007977;28;20927;-87
2024/01/09 10:06:04;;;;;;;1.60;1.50;;;19.40;36.70;;;;;;5020025;28;20416;-87
2024/01/09 10:08:33;;;;;;;1.70;1.60;;;19.40;36.70;;;;;;5022718;28;20418;-87
2024/01/09 10:10:59;;;;;;;1.70;1.60;;;19.40;36.70;;;;;;5018845;28;20419;-87
2024/01/09 10:13:24;;;;;;;1.80;1.70;;;19.40;36.70;;;;;;4995171;28;20431;-88
2024/01/09 10:16:00;;;;;;;1.87;1.67;;;19.40;36.70;;;;;;5000104;28;20207;-88
2024/01/09 10:18:32;;;;;;;1.50;1.40;;;19.40;36.70;;;;;;5021303;28;20225;-87
2024/01/09 10:20:59;;;;;;;1.60;1.50;;;19.40;36.70;;;;;;5019455;28;20430;-88
2024/01/09 10:23:26;;;;;;;1.67;1.57;;;19.40;36.70;;;;;;5016822;28;20435;-88
2024/01/09 10:25:53;;;;;;;1.50;1.40;;;19.40;36.60;;;;;;5020678;28;20461;-90
2024/01/09 10:28:18;;;;;;;1.50;1.40;;;19.40;36.70;;;;;;5019780;28;20510;-88
2024/01/09 10:30:45;;;;;;;1.40;1.20;;;19.40;36.60;;;;;;5017155;28;20408;-89
2024/01/09 10:33:12;;;;;;;1.73;1.53;;;19.40;36.60;;;;;;5016858;28;20219;-88
2024/01/09 10:35:38;;;;;;;1.60;1.50;;;19.40;36.70;;;;;;5021990;28;20509;-88
2024/01/09 10:38:04;;;;;;;1.50;1.40;;;19.40;36.60;;;;;;5016360;28;20450;-92
2024/01/09 10:40:29;;;;;;;1.77;1.67;;;19.40;36.60;;;;;;5016841;28;20465;-88
2024/01/09 10:42:55;;;;;;;1.60;1.50;;;19.40;36.70;;;;;;5018156;28;20234;-89
2024/01/09 10:45:24;;;;;;;1.60;1.50;;;19.40;36.60;;;;;;5017114;28;20219;-89
2024/01/09 10:47:53;;;;;;;1.50;1.40;;;19.40;36.60;;;;;;5014818;28;20228;-88
2024/01/09 10:50:22;;;;;;;1.50;1.40;;;19.40;36.60;;;;;;5019145;28;20435;-88
2024/01/09 10:52:49;;;;;;;1.63;1.53;;;19.40;36.60;;;;;;5017122;28;20480;-88
2024/01/09 10:55:16;;;;;;;1.60;1.50;;;19.40;36.60;;;;;;5012901;28;20429;-88
2024/01/09 10:57:42;;;;;;;1.60;1.50;;;19.40;36.60;;;;;;5015030;28;20496;-89
2024/01/09 11:00:11;;;;;;;1.50;1.40;;;19.40;36.60;;;;;;5014889;28;20954;-88
2024/01/09 11:02:37;;;;;;;1.50;1.40;;;19.40;36.50;;;;;;5017424;28;20322;-88
2024/01/09 11:05:05;;;;;;;1.60;1.50;;;19.50;36.60;;;;;;5017845;28;20438;-87
2024/01/09 11:07:32;;;;;;;1.80;1.70;;;19.50;36.60;;;;;;5016472;28;20426;-88
2024/01/09 11:10:00;;;;;;;1.60;1.50;;;19.40;36.50;;;;;;5012631;28;20502;-88
2024/01/09 11:12:31;;;;;;;1.50;1.40;;;19.40;36.50;;;;;;5013102;28;20451;-88
2024/01/09 11:15:10;;;;;;;1.60;1.50;;;19.50;36.60;;;;;;5017928;28;20455;-89
2024/01/09 11:17:38;;;;;;;1.50;1.40;;;19.40;36.50;;;;;;5000382;28;20428;-88
2024/01/09 11:20:06;;;;;;;1.70;1.60;;;19.40;36.50;;;;;;5013310;28;20462;-86
2024/01/09 11:22:36;;;;;;;1.33;1.23;;;19.50;36.60;;;;;;5016412;28;20419;-88
2024/01/09 11:25:05;;;;;;;2.13;1.70;;;19.50;36.60;;;;;;4998907;28;20427;-88
2024/01/09 11:27:41;;;;;;;1.57;1.47;;;19.50;36.60;;;;;;5014208;28;20476;-87
2024/01/09 11:30:09;;;;;;;1.40;1.30;;;19.50;36.60;;;;;;5028364;28;20456;-89
2024/01/09 11:32:34;;;;;;;1.40;1.30;;;19.50;36.50;;;;;;5014534;28;20471;-88
2024/01/09 11:35:17;;;;;;;1.77;1.67;;;19.50;37.30;;;;;;4994237;28;20821;-89
2024/01/09 11:37:46;;;;;;;1.43;1.33;;;19.50;36.50;;;;;;4990912;28;20281;-91
2024/01/09 11:40:13;;;;;;;1.50;1.40;;;19.50;36.50;;;;;;5001296;28;20411;-90
2024/01/09 11:42:43;;;;;;;1.57;1.47;;;19.50;36.50;;;;;;5002778;28;20417;-89
2024/01/09 11:45:09;;;;;;;1.67;1.57;;;19.50;36.50;;;;;;5016901;28;20407;-89
2024/01/09 11:47:39;;;;;;;1.53;1.43;;;19.50;36.50;;;;;;4993511;28;20441;-89
2024/01/09 11:50:07;;;;;;;1.40;1.30;;;19.50;36.50;;;;;;5007204;28;20451;-88
2024/01/09 11:52:33;;;;;;;1.47;1.33;;;19.50;36.50;;;;;;5006585;28;20879;-87
2024/01/09 11:54:58;;;;;;;1.63;1.53;;;19.50;36.50;;;;;;4999161;28;20530;-88
2024/01/09 11:57:24;;;;;;;1.60;1.50;;;19.50;36.50;;;;;;5006943;28;20417;-88
2024/01/09 11:59:49;;;;;;;1.67;1.57;;;19.50;36.50;;;;;;5006515;28;20895;-87
2024/01/09 12:02:18;;;;;;;1.83;1.73;;;19.50;36.50;;;;;;5011519;28;20210;-88
2024/01/09 12:04:44;;;;;;;1.50;1.40;;;19.50;36.50;;;;;;5005954;28;20286;-88
2024/01/09 12:07:12;;;;;;;1.60;1.50;;;19.50;36.50;;;;;;5004600;28;20442;-88
2024/01/09 12:09:37;;;;;;;1.83;1.60;;;19.50;37.20;;;;;;4987563;28;20796;-86
2024/01/09 12:12:10;;;;;;;1.63;1.53;;;19.50;36.50;;;;;;4992328;28;20431;-86
2024/01/09 12:14:35;;;;;;;1.50;1.40;;;19.50;36.40;;;;;;4978721;28;20286;-87
2024/01/09 12:17:16;;;;;;;1.60;1.50;;;19.50;36.40;;;;;;4995823;28;20860;-87
2024/01/09 12:19:42;;;;;;;1.50;1.40;;;19.50;36.40;;;;;;5024445;28;20223;-87
2024/01/09 12:22:08;;;;;;;1.70;1.60;;;19.50;36.50;;;;;;5010858;28;20766;-88
2024/01/09 12:24:33;;;;;;;1.47;1.37;;;19.50;36.50;;;;;;5018068;28;20218;-85
2024/01/09 12:27:00;;;;;;;1.60;1.50;;;19.50;36.50;;;;;;5017496;28;20230;-88
2024/01/09 12:29:25;;;;;;;1.70;1.60;;;19.50;36.40;;;;;;4997071;28;20218;-88
2024/01/09 12:31:51;;;;;;;4.60;2.00;;;19.50;36.50;;;;;;5000266;28;20418;-88
2024/01/09 12:34:17;;;;;;;1.30;1.20;;;19.50;36.50;;;;;;5015555;28;20343;-89
2024/01/09 12:36:42;;;;;;;1.60;1.50;;;19.50;36.50;;;;;;5013215;28;20326;-88
2024/01/09 12:39:12;;;;;;;1.60;1.50;;;19.50;36.40;;;;;;4998843;28;20235;-88
2024/01/09 12:41:39;;;;;;;2.60;1.80;;;19.50;36.40;;;;;;5005387;28;20245;-88
2024/01/09 12:44:14;;;;;;;1.80;1.70;;;19.50;36.50;;;;;;5005088;28;20460;-87